Time;durP1;ratioP1;P1;durP2;ratioP2;P2;SDS_P1;SDS_P2;PMS_P1;PMS_P2;Temp;Humidity;BMP_temperature;BMP_pressure;BME280_temperature;BME280_humidity;BME280_pressure;Samples;Min_cycle;Max_cycle;Signal;HPM_P1;HPM_P2
2023/10/31 00:02:12;;;;;;;0.95;0.40;;;16.40;57.80;;;;;;5024161;28;20076;-51
2023/10/31 00:04:41;;;;;;;0.30;0.25;;;16.40;57.60;;;;;;5025586;28;20080;-52
2023/10/31 00:07:09;;;;;;;0.38;0.38;;;16.30;57.30;;;;;;5024174;28;20053;-50
2023/10/31 00:09:36;;;;;;;0.80;0.30;;;16.30;57.30;;;;;;5025326;28;20057;-56
2023/10/31 00:12:04;;;;;;;1.00;0.30;;;16.30;57.30;;;;;;5024764;28;20069;-53
2023/10/31 00:14:31;;;;;;;0.98;0.40;;;16.30;57.40;;;;;;5025494;28;20410;-53
2023/10/31 00:16:58;;;;;;;1.95;0.52;;;16.20;57.30;;;;;;5022888;28;20057;-54
2023/10/31 00:19:26;;;;;;;0.63;0.30;;;16.30;57.30;;;;;;5025131;28;20057;-51
2023/10/31 00:21:55;;;;;;;1.13;0.30;;;16.20;57.20;;;;;;5023737;28;20068;-56
2023/10/31 00:24:22;;;;;;;0.57;0.30;;;16.20;57.10;;;;;;5024416;28;20049;-51
2023/10/31 00:26:49;;;;;;;0.30;0.20;;;16.20;56.90;;;;;;5025349;28;20053;-53
2023/10/31 00:29:17;;;;;;;0.30;0.20;;;16.10;56.70;;;;;;5024756;28;20056;-48
2023/10/31 00:31:44;;;;;;;0.30;0.30;;;16.20;56.60;;;;;;5023200;28;20058;-49
2023/10/31 00:34:11;;;;;;;1.35;0.40;;;16.10;56.50;;;;;;5023997;28;20069;-51
2023/10/31 00:36:39;;;;;;;0.80;0.40;;;16.10;56.50;;;;;;5023501;28;20052;-49
2023/10/31 00:39:07;;;;;;;0.20;0.20;;;16.10;56.40;;;;;;5024251;28;20406;-51
2023/10/31 00:41:35;;;;;;;0.50;0.40;;;16.10;56.40;;;;;;5025220;28;20405;-54
2023/10/31 00:44:02;;;;;;;0.50;0.50;;;16.10;56.40;;;;;;5023064;28;20058;-49
2023/10/31 00:46:29;;;;;;;0.98;0.40;;;16.10;56.40;;;;;;5023690;28;20050;-48
2023/10/31 00:48:57;;;;;;;0.45;0.30;;;16.10;56.20;;;;;;5024346;28;20045;-45
2023/10/31 00:51:24;;;;;;;0.30;0.30;;;16.00;56.20;;;;;;5024309;28;20068;-49
2023/10/31 00:53:51;;;;;;;0.50;0.35;;;16.10;56.20;;;;;;5024196;28;20518;-50
2023/10/31 00:56:20;;;;;;;0.50;0.30;;;16.00;56.40;;;;;;5023812;28;20081;-45
2023/10/31 00:58:47;;;;;;;9.50;0.88;;;16.00;56.40;;;;;;5022829;28;20049;-51
2023/10/31 01:01:15;;;;;;;0.80;0.38;;;16.10;56.50;;;;;;5022351;28;20049;-49
2023/10/31 01:03:43;;;;;;;1.23;0.38;;;16.00;56.60;;;;;;5023477;28;20060;-47
2023/10/31 01:06:10;;;;;;;1.75;0.57;;;16.00;56.70;;;;;;5024022;28;20057;-50
2023/10/31 01:08:38;;;;;;;3.40;0.77;;;16.00;56.70;;;;;;5024613;28;20497;-50
2023/10/31 01:11:06;;;;;;;0.60;0.60;;;16.00;56.40;;;;;;5024070;28;20057;-48
2023/10/31 01:13:34;;;;;;;1.35;0.63;;;16.00;56.40;;;;;;5023304;28;20061;-50
2023/10/31 01:16:02;;;;;;;2.13;1.00;;;16.00;56.50;;;;;;5022787;28;20510;-49
2023/10/31 01:18:29;;;;;;;1.58;0.77;;;16.00;56.20;;;;;;5024015;28;20054;-43
2023/10/31 01:20:57;;;;;;;0.88;0.70;;;16.00;56.30;;;;;;5024105;28;20057;-49
2023/10/31 01:23:24;;;;;;;5.95;0.80;;;15.90;56.20;;;;;;5023969;28;20061;-46
2023/10/31 01:25:51;;;;;;;1.63;0.90;;;15.90;56.20;;;;;;5023032;28;20057;-45
2023/10/31 01:28:18;;;;;;;2.55;0.95;;;15.90;56.20;;;;;;5023598;28;20417;-46
2023/10/31 01:30:47;;;;;;;1.92;0.90;;;15.90;56.20;;;;;;5021689;28;20050;-49
2023/10/31 01:33:15;;;;;;;0.65;0.65;;;15.90;56.20;;;;;;5023626;28;20061;-46
2023/10/31 01:35:42;;;;;;;1.05;0.73;;;15.80;56.20;;;;;;5023233;28;20068;-50
2023/10/31 01:38:09;;;;;;;1.73;0.90;;;15.80;56.10;;;;;;5023382;28;20058;-47
2023/10/31 01:40:36;;;;;;;2.28;0.80;;;15.80;56.20;;;;;;5022940;28;20057;-45
2023/10/31 01:43:04;;;;;;;2.05;1.10;;;15.80;56.20;;;;;;5022984;28;20063;-45
2023/10/31 01:45:31;;;;;;;2.28;0.63;;;15.80;56.30;;;;;;5022614;28;20064;-47
2023/10/31 01:48:00;;;;;;;0.73;0.60;;;15.80;56.60;;;;;;5022586;28;20061;-56
2023/10/31 01:50:28;;;;;;;1.85;0.60;;;15.80;56.50;;;;;;5022174;28;20513;-56
2023/10/31 01:52:55;;;;;;;1.40;0.80;;;15.70;56.50;;;;;;5022161;28;20066;-55
2023/10/31 01:55:27;;;;;;;4.00;0.70;;;15.70;56.40;;;;;;5022822;28;20064;-56
2023/10/31 01:57:54;;;;;;;2.67;0.77;;;15.70;56.40;;;;;;5022943;28;20053;-56
2023/10/31 02:00:22;;;;;;;4.57;0.60;;;15.70;56.40;;;;;;5022261;28;20053;-57
2023/10/31 02:02:52;;;;;;;1.55;0.50;;;15.60;56.40;;;;;;5022638;28;20486;-57
2023/10/31 02:05:21;;;;;;;2.22;0.52;;;15.60;56.50;;;;;;5022700;28;20061;-56
2023/10/31 02:07:48;;;;;;;3.83;0.70;;;15.60;56.60;;;;;;5022376;28;20049;-55
2023/10/31 02:10:16;;;;;;;1.88;0.60;;;15.60;56.70;;;;;;5022055;28;20783;-57
2023/10/31 02:12:43;;;;;;;1.35;0.50;;;15.60;56.80;;;;;;5021878;28;20046;-55
2023/10/31 02:15:11;;;;;;;1.35;0.57;;;15.60;56.70;;;;;;5023049;28;20057;-56
2023/10/31 02:17:38;;;;;;;1.38;0.65;;;15.50;57.00;;;;;;5022253;28;20058;-56
2023/10/31 02:20:07;;;;;;;2.28;0.73;;;15.50;56.50;;;;;;5021351;28;20053;-56
2023/10/31 02:22:35;;;;;;;3.42;0.80;;;15.50;56.50;;;;;;5022116;28;20072;-52
2023/10/31 02:25:03;;;;;;;1.00;0.70;;;15.50;56.50;;;;;;5022703;28;20049;-57
2023/10/31 02:27:30;;;;;;;3.35;0.88;;;15.50;56.50;;;;;;5021632;28;20062;-55
2023/10/31 02:29:57;;;;;;;2.63;0.95;;;15.50;56.50;;;;;;5023547;28;20049;-57
2023/10/31 02:32:25;;;;;;;2.60;0.77;;;15.40;56.30;;;;;;5020571;28;20072;-57
2023/10/31 02:34:52;;;;;;;1.77;0.70;;;15.40;56.20;;;;;;5022333;28;20057;-56
2023/10/31 02:37:19;;;;;;;2.40;0.80;;;15.40;56.10;;;;;;5022107;28;20057;-57
2023/10/31 02:39:48;;;;;;;2.20;0.60;;;15.40;56.20;;;;;;5023125;28;20417;-56
2023/10/31 02:42:15;;;;;;;3.33;1.20;;;15.30;56.20;;;;;;5022951;28;20053;-56
2023/10/31 02:44:43;;;;;;;4.50;0.70;;;15.30;56.30;;;;;;5022340;28;20053;-56
2023/10/31 02:47:10;;;;;;;1.50;0.50;;;15.30;56.20;;;;;;5020915;28;20064;-57
2023/10/31 02:49:37;;;;;;;3.92;0.80;;;15.20;56.30;;;;;;5021905;28;20510;-56
2023/10/31 02:52:05;;;;;;;4.78;0.50;;;15.20;56.30;;;;;;5022115;28;20053;-56
2023/10/31 02:54:32;;;;;;;2.42;0.50;;;15.20;56.30;;;;;;5022007;28;20061;-56
2023/10/31 02:57:01;;;;;;;1.42;0.47;;;15.20;56.40;;;;;;5022364;28;20057;-57
2023/10/31 02:59:28;;;;;;;2.65;0.52;;;15.20;56.40;;;;;;5022064;28;20049;-48
2023/10/31 03:01:58;;;;;;;3.78;0.60;;;15.10;56.40;;;;;;5021637;28;20069;-50
2023/10/31 03:04:25;;;;;;;2.08;0.40;;;15.10;56.40;;;;;;5021772;28;20053;-50
2023/10/31 03:06:52;;;;;;;2.53;0.50;;;15.10;56.40;;;;;;5021596;28;20057;-52
2023/10/31 03:09:19;;;;;;;1.73;0.60;;;15.10;56.40;;;;;;5022244;28;20049;-49
2023/10/31 03:11:47;;;;;;;2.08;0.43;;;15.10;56.40;;;;;;5020558;28;20052;-48
2023/10/31 03:14:15;;;;;;;3.70;0.77;;;15.10;56.50;;;;;;5021501;28;20117;-46
2023/10/31 03:16:43;;;;;;;2.13;0.47;;;15.00;56.40;;;;;;5019569;28;20064;-45
2023/10/31 03:19:10;;;;;;;2.00;0.82;;;15.00;56.50;;;;;;5021566;28;20522;-48
2023/10/31 03:21:37;;;;;;;5.63;0.55;;;15.00;56.50;;;;;;5023127;28;20059;-48
2023/10/31 03:24:05;;;;;;;2.40;0.75;;;15.00;56.60;;;;;;5025812;28;20053;-52
2023/10/31 03:26:33;;;;;;;2.90;0.25;;;15.00;56.60;;;;;;5025153;28;20059;-47
2023/10/31 03:29:00;;;;;;;2.53;0.38;;;15.00;56.40;;;;;;5025867;28;20402;-49
2023/10/31 03:31:29;;;;;;;2.05;0.52;;;15.00;56.40;;;;;;5025204;28;20413;-50
2023/10/31 03:33:56;;;;;;;1.58;0.43;;;14.90;56.30;;;;;;5025913;28;20056;-49
2023/10/31 03:36:23;;;;;;;1.58;0.40;;;15.00;56.50;;;;;;5025467;28;20049;-55
2023/10/31 03:38:51;;;;;;;2.60;0.50;;;15.00;56.60;;;;;;5025113;28;20049;-50
2023/10/31 03:41:18;;;;;;;1.15;0.43;;;14.90;56.70;;;;;;5024441;28;20057;-50
2023/10/31 03:43:45;;;;;;;2.50;0.30;;;14.90;56.90;;;;;;5025553;28;20053;-48
2023/10/31 03:46:13;;;;;;;2.45;0.32;;;14.90;57.00;;;;;;5023450;28;20058;-48
2023/10/31 03:48:43;;;;;;;0.65;0.30;;;14.90;57.30;;;;;;5024904;28;20414;-50
2023/10/31 03:51:10;;;;;;;0.25;0.20;;;14.90;57.00;;;;;;5025457;28;20056;-49
2023/10/31 03:53:37;;;;;;;0.93;0.40;;;14.90;56.80;;;;;;5025224;28;20058;-52
2023/10/31 03:56:05;;;;;;;1.98;0.45;;;14.90;56.70;;;;;;5024477;28;20065;-50
2023/10/31 03:58:32;;;;;;;1.20;0.40;;;14.90;56.70;;;;;;5024682;28;20054;-49
2023/10/31 04:01:00;;;;;;;1.85;0.50;;;14.90;56.70;;;;;;5023935;28;20410;-48
2023/10/31 04:03:27;;;;;;;1.73;0.40;;;14.90;56.70;;;;;;5025702;28;20053;-49
2023/10/31 04:05:55;;;;;;;1.65;0.90;;;14.90;56.70;;;;;;5023942;28;20064;-47
2023/10/31 04:08:23;;;;;;;2.85;0.40;;;14.90;56.60;;;;;;5024157;28;20064;-50
2023/10/31 04:10:50;;;;;;;0.70;0.40;;;14.90;56.60;;;;;;5024612;28;20056;-49
2023/10/31 04:13:17;;;;;;;1.30;0.40;;;14.90;56.60;;;;;;5024515;28;20072;-52
2023/10/31 04:15:44;;;;;;;0.85;0.20;;;14.90;56.60;;;;;;5022162;28;20053;-53
2023/10/31 04:18:12;;;;;;;0.52;0.30;;;14.90;56.70;;;;;;5025344;28;20426;-49
2023/10/31 04:20:39;;;;;;;1.50;0.40;;;14.90;56.70;;;;;;5019875;28;20049;-55
2023/10/31 04:23:08;;;;;;;0.32;0.20;;;14.90;56.80;;;;;;5024436;28;20057;-51
2023/10/31 04:25:35;;;;;;;1.52;0.40;;;14.90;56.80;;;;;;5023309;28;20433;-49
2023/10/31 04:28:02;;;;;;;1.13;0.40;;;14.90;56.80;;;;;;5023259;28;20494;-55
2023/10/31 04:30:30;;;;;;;2.45;0.55;;;14.80;56.80;;;;;;5024281;28;20061;-57
2023/10/31 04:32:57;;;;;;;3.15;0.30;;;14.80;56.80;;;;;;5022473;28;20057;-54
2023/10/31 04:35:24;;;;;;;5.15;0.50;;;14.80;56.80;;;;;;5023645;28;20057;-57
2023/10/31 04:37:51;;;;;;;0.70;0.20;;;14.80;56.90;;;;;;5023265;28;20494;-54
2023/10/31 04:40:20;;;;;;;1.27;0.20;;;14.80;56.90;;;;;;5023828;28;20045;-55
2023/10/31 04:42:48;;;;;;;0.65;0.60;;;14.90;56.90;;;;;;5024220;28;20046;-54
2023/10/31 04:45:15;;;;;;;1.83;0.32;;;14.80;56.90;;;;;;5023951;28;20049;-54
2023/10/31 04:47:43;;;;;;;1.65;0.20;;;14.90;56.90;;;;;;5023538;28;20061;-52
2023/10/31 04:50:10;;;;;;;0.63;0.35;;;14.90;57.00;;;;;;5022937;28;20060;-52
2023/10/31 04:52:37;;;;;;;1.80;0.35;;;14.90;57.00;;;;;;5023047;28;20057;-54
2023/10/31 04:55:05;;;;;;;1.15;0.40;;;14.90;57.00;;;;;;5023694;28;20529;-55
2023/10/31 04:57:34;;;;;;;1.30;0.57;;;14.90;57.00;;;;;;5023859;28;20054;-53
2023/10/31 05:00:03;;;;;;;0.80;0.30;;;14.90;57.00;;;;;;5023457;28;20422;-51
2023/10/31 05:02:30;;;;;;;0.40;0.30;;;14.90;57.10;;;;;;5023193;28;20057;-54
2023/10/31 05:04:58;;;;;;;1.63;0.38;;;14.90;57.20;;;;;;5023623;28;20057;-54
2023/10/31 05:07:25;;;;;;;0.30;0.22;;;14.90;57.20;;;;;;5022393;28;20517;-51
2023/10/31 05:09:52;;;;;;;1.58;0.22;;;14.90;57.10;;;;;;5023120;28;20060;-55
2023/10/31 05:12:19;;;;;;;0.55;0.30;;;14.90;57.20;;;;;;5023942;28;20068;-51
2023/10/31 05:14:48;;;;;;;1.45;0.40;;;14.90;57.30;;;;;;5023282;28;20053;-52
2023/10/31 05:17:15;;;;;;;1.02;0.30;;;14.90;57.20;;;;;;5020709;28;20422;-48
2023/10/31 05:19:42;;;;;;;0.80;0.40;;;14.90;57.30;;;;;;5022906;28;20049;-55
2023/10/31 05:22:10;;;;;;;1.85;0.40;;;14.90;57.20;;;;;;5022071;28;20057;-54
2023/10/31 05:24:37;;;;;;;0.63;0.30;;;14.90;57.30;;;;;;5022284;28;20053;-56
2023/10/31 05:27:07;;;;;;;1.80;0.40;;;14.90;57.30;;;;;;5022570;28;20829;-57
2023/10/31 05:29:35;;;;;;;8.98;0.43;;;14.90;57.30;;;;;;5023454;28;20053;-56
2023/10/31 05:32:04;;;;;;;1.63;0.30;;;14.90;57.20;;;;;;5027004;28;20050;-57
2023/10/31 05:34:32;;;;;;;0.20;0.10;;;14.90;57.20;;;;;;5022765;28;20056;-57
2023/10/31 05:36:59;;;;;;;2.42;1.50;;;14.90;57.30;;;;;;5021811;28;20061;-56
2023/10/31 05:39:26;;;;;;;2.67;1.38;;;14.90;57.30;;;;;;5023241;28;20049;-55
2023/10/31 05:41:53;;;;;;;1.88;0.60;;;14.90;57.30;;;;;;5022422;28;20490;-57
2023/10/31 05:44:21;;;;;;;0.70;0.50;;;14.90;57.30;;;;;;5021669;28;20049;-56
2023/10/31 05:46:48;;;;;;;1.40;0.63;;;14.90;57.20;;;;;;5021654;28;20049;-56
2023/10/31 05:49:17;;;;;;;3.60;0.45;;;14.90;57.30;;;;;;5022493;28;20053;-58
2023/10/31 05:51:44;;;;;;;1.20;0.20;;;14.90;57.30;;;;;;5022965;28;20050;-56
2023/10/31 05:54:11;;;;;;;2.45;0.45;;;14.90;57.20;;;;;;5021592;28;20057;-57
2023/10/31 05:56:39;;;;;;;0.82;0.70;;;14.90;57.30;;;;;;5022290;28;20080;-57
2023/10/31 05:59:06;;;;;;;2.35;0.40;;;14.90;57.30;;;;;;5022423;28;20068;-57
2023/10/31 06:01:33;;;;;;;0.85;0.50;;;14.90;57.30;;;;;;5020811;28;20041;-58
2023/10/31 06:04:01;;;;;;;1.75;0.57;;;14.90;57.30;;;;;;5022719;28;20054;-57
2023/10/31 06:06:32;;;;;;;1.63;0.40;;;14.90;57.30;;;;;;5022130;28;20050;-57
2023/10/31 06:08:59;;;;;;;2.22;0.40;;;14.90;57.30;;;;;;5022243;28;20061;-57
2023/10/31 06:11:27;;;;;;;1.30;0.38;;;14.90;57.20;;;;;;5021439;28;20053;-54
2023/10/31 06:13:54;;;;;;;2.00;0.35;;;14.90;57.20;;;;;;5022727;28;20050;-56
2023/10/31 06:16:21;;;;;;;0.45;0.40;;;14.90;57.20;;;;;;5020706;28;20457;-57
2023/10/31 06:18:48;;;;;;;5.45;0.63;;;14.90;57.20;;;;;;5022811;28;20410;-57
2023/10/31 06:21:15;;;;;;;1.13;0.60;;;14.90;57.10;;;;;;5021559;28;20054;-57
2023/10/31 06:23:46;;;;;;;0.65;0.40;;;15.00;57.20;;;;;;5022457;28;20068;-57
2023/10/31 06:26:13;;;;;;;1.20;0.50;;;14.90;57.10;;;;;;5021602;28;20398;-56
2023/10/31 06:28:40;;;;;;;1.45;0.60;;;15.00;57.10;;;;;;5021768;28;20504;-54
2023/10/31 06:31:08;;;;;;;2.58;0.52;;;15.00;57.10;;;;;;5020919;28;20080;-52
2023/10/31 06:33:35;;;;;;;0.30;0.30;;;15.00;57.10;;;;;;5022833;28;20057;-49
2023/10/31 06:36:03;;;;;;;0.40;0.40;;;15.00;57.10;;;;;;5020874;28;20054;-49
2023/10/31 06:38:30;;;;;;;1.45;0.60;;;15.00;57.10;;;;;;5021830;28;20061;-47
2023/10/31 06:40:59;;;;;;;2.25;0.65;;;15.00;57.10;;;;;;5021007;28;20056;-51
2023/10/31 06:43:27;;;;;;;1.52;0.63;;;15.00;57.00;;;;;;5021117;28;20062;-47
2023/10/31 06:45:54;;;;;;;1.95;0.70;;;15.00;56.80;;;;;;5020685;28;20049;-50
2023/10/31 06:48:22;;;;;;;0.68;0.47;;;15.00;56.80;;;;;;5022074;28;20061;-45
2023/10/31 06:50:49;;;;;;;0.98;0.40;;;15.00;56.80;;;;;;5020857;28;20054;-49
2023/10/31 06:53:16;;;;;;;1.05;0.63;;;15.00;56.80;;;;;;5021420;28;20071;-51
2023/10/31 06:55:44;;;;;;;1.85;0.57;;;15.00;56.80;;;;;;5023290;28;20410;-49
2023/10/31 06:58:12;;;;;;;1.60;0.57;;;15.00;56.80;;;;;;5025734;28;20421;-53
2023/10/31 07:00:39;;;;;;;1.27;0.63;;;15.10;56.80;;;;;;5025947;28;20394;-47
2023/10/31 07:03:09;;;;;;;1.10;0.70;;;15.00;56.70;;;;;;5025449;28;20049;-49
2023/10/31 07:05:36;;;;;;;1.73;0.77;;;15.00;56.70;;;;;;5024959;28;20053;-54
2023/10/31 07:08:05;;;;;;;0.80;0.52;;;15.10;56.80;;;;;;5025393;28;20405;-49
2023/10/31 07:10:33;;;;;;;7.47;1.20;;;15.00;56.70;;;;;;5024740;28;20049;-50
2023/10/31 07:13:00;;;;;;;1.52;1.05;;;15.00;56.70;;;;;;5026429;28;20518;-47
2023/10/31 07:15:29;;;;;;;5.10;1.15;;;15.10;56.70;;;;;;5024165;28;20057;-50
2023/10/31 07:17:56;;;;;;;29.58;14.07;;;15.10;56.60;;;;;;5024491;28;20057;-51
2023/10/31 07:20:23;;;;;;;9.50;4.88;;;15.10;56.60;;;;;;5024388;28;20053;-50
2023/10/31 07:22:50;;;;;;;5.53;1.70;;;15.10;56.80;;;;;;5024894;28;20060;-47
2023/10/31 07:25:18;;;;;;;1.88;1.23;;;15.10;56.70;;;;;;5025197;28;20057;-51
2023/10/31 07:27:45;;;;;;;3.25;1.20;;;15.10;56.60;;;;;;5025424;28;20144;-49
2023/10/31 07:30:13;;;;;;;2.20;1.00;;;15.10;56.70;;;;;;5024730;28;20061;-50
2023/10/31 07:32:41;;;;;;;1.80;1.13;;;15.10;57.20;;;;;;5024923;28;20057;-46
2023/10/31 07:35:09;;;;;;;2.53;0.85;;;15.10;56.80;;;;;;5024997;28;20061;-49
2023/10/31 07:37:36;;;;;;;3.35;1.00;;;15.10;56.70;;;;;;5025077;28;20506;-50
2023/10/31 07:40:04;;;;;;;3.83;0.93;;;15.10;56.70;;;;;;5026253;28;20391;-48
2023/10/31 07:42:31;;;;;;;4.10;1.08;;;15.10;56.70;;;;;;5024753;28;20060;-49
2023/10/31 07:44:59;;;;;;;1.52;0.82;;;15.10;56.70;;;;;;5019530;28;20057;-49
2023/10/31 07:47:26;;;;;;;1.58;0.90;;;15.20;56.70;;;;;;5022591;28;20433;-46
2023/10/31 07:49:55;;;;;;;1.35;0.93;;;15.20;56.60;;;;;;5024067;28;20053;-45
2023/10/31 07:52:22;;;;;;;2.13;1.10;;;15.20;56.60;;;;;;5025440;28;20117;-48
2023/10/31 07:54:50;;;;;;;3.83;2.25;;;15.20;56.60;;;;;;5025475;28;20254;-50
2023/10/31 07:57:17;;;;;;;3.60;1.20;;;15.20;56.70;;;;;;5025122;28;20053;-45
2023/10/31 07:59:44;;;;;;;2.00;1.00;;;15.20;56.80;;;;;;5024613;28;20417;-49
2023/10/31 08:02:12;;;;;;;2.90;1.20;;;15.20;56.70;;;;;;5024088;28;21117;-52
2023/10/31 08:04:39;;;;;;;1.58;0.98;;;15.20;56.70;;;;;;5024467;28;20510;-47
2023/10/31 08:07:08;;;;;;;2.13;1.17;;;15.30;56.70;;;;;;5024131;28;20057;-46
2023/10/31 08:09:36;;;;;;;5.60;1.40;;;15.30;56.50;;;;;;5023698;28;20053;-50
2023/10/31 08:12:03;;;;;;;1.95;1.20;;;15.30;56.40;;;;;;5024256;28;20061;-48
2023/10/31 08:14:31;;;;;;;2.25;1.13;;;15.30;56.40;;;;;;5024164;28;20065;-49
2023/10/31 08:16:58;;;;;;;1.85;1.10;;;15.30;56.20;;;;;;5024098;28;20057;-48
2023/10/31 08:19:25;;;;;;;5.10;1.55;;;15.30;56.10;;;;;;5024042;28;20057;-48
2023/10/31 08:21:52;;;;;;;3.30;1.50;;;15.30;56.10;;;;;;5024601;28;20057;-49
2023/10/31 08:24:21;;;;;;;8.27;1.25;;;15.40;56.10;;;;;;5023630;28;20417;-51
2023/10/31 08:26:48;;;;;;;2.38;1.40;;;15.40;56.10;;;;;;5023895;28;20050;-50
2023/10/31 08:29:16;;;;;;;5.03;1.77;;;15.40;56.00;;;;;;5023766;28;20425;-51
2023/10/31 08:31:43;;;;;;;2.83;1.42;;;15.40;55.90;;;;;;5023012;28;20406;-52
2023/10/31 08:34:11;;;;;;;2.35;1.40;;;15.40;56.30;;;;;;5025258;28;20065;-49
2023/10/31 08:36:39;;;;;;;3.25;1.70;;;15.40;55.90;;;;;;5023836;28;20053;-49
2023/10/31 08:39:06;;;;;;;3.55;1.60;;;15.40;55.90;;;;;;5020299;28;20064;-53
2023/10/31 08:41:35;;;;;;;1.48;1.05;;;15.40;55.80;;;;;;5022640;28;20061;-52
2023/10/31 08:44:03;;;;;;;2.67;1.10;;;15.50;55.70;;;;;;5023120;28;20509;-51
2023/10/31 08:46:30;;;;;;;2.10;0.70;;;15.50;55.70;;;;;;5022445;28;20555;-54
2023/10/31 08:48:58;;;;;;;1.48;0.70;;;15.50;55.70;;;;;;5024894;28;20367;-52
2023/10/31 08:51:25;;;;;;;2.53;0.77;;;15.50;55.60;;;;;;5023670;28;20049;-55
2023/10/31 08:53:52;;;;;;;3.60;1.00;;;15.50;55.60;;;;;;5023403;28;20057;-55
2023/10/31 08:56:20;;;;;;;2.83;1.00;;;15.50;55.60;;;;;;5023326;28;20520;-55
2023/10/31 08:58:59;;;;;;;2.25;0.93;;;15.50;55.50;;;;;;5022593;28;20430;-49
2023/10/31 09:01:28;;;;;;;2.78;1.00;;;15.50;55.50;;;;;;5021188;28;20049;-50
2023/10/31 09:03:58;;;;;;;2.20;0.90;;;15.50;55.40;;;;;;5023735;28;20054;-47
2023/10/31 09:06:25;;;;;;;0.93;0.60;;;15.50;55.40;;;;;;5022803;28;20053;-49
2023/10/31 09:08:53;;;;;;;2.40;0.60;;;15.50;55.40;;;;;;5022744;28;20053;-54
2023/10/31 09:11:20;;;;;;;6.15;0.60;;;15.50;55.50;;;;;;5022557;28;20060;-51
2023/10/31 09:13:47;;;;;;;1.85;0.73;;;15.50;55.50;;;;;;5022889;28;20064;-50
2023/10/31 09:16:16;;;;;;;1.00;0.50;;;15.50;55.60;;;;;;5022699;28;20065;-50
2023/10/31 09:18:44;;;;;;;0.70;0.50;;;15.60;55.60;;;;;;5022364;28;20054;-50
2023/10/31 09:21:12;;;;;;;2.10;0.82;;;15.60;55.60;;;;;;5022260;28;20057;-56
2023/10/31 09:23:39;;;;;;;3.13;0.47;;;15.60;55.60;;;;;;5022338;28;20429;-49
2023/10/31 09:26:06;;;;;;;2.78;1.45;;;15.60;55.70;;;;;;5022173;28;20060;-47
2023/10/31 09:28:34;;;;;;;2.20;1.42;;;15.50;55.60;;;;;;5023498;28;20050;-48
2023/10/31 09:31:01;;;;;;;4.43;1.20;;;15.60;55.60;;;;;;5022095;28;20061;-48
2023/10/31 09:33:30;;;;;;;2.25;1.40;;;15.60;55.50;;;;;;5023145;28;20493;-51
2023/10/31 09:35:57;;;;;;;13.65;6.03;;;15.60;55.50;;;;;;5021845;28;20494;-51
2023/10/31 09:38:24;;;;;;;11.70;2.95;;;15.60;55.40;;;;;;5022763;28;20053;-51
2023/10/31 09:40:52;;;;;;;3.17;1.75;;;15.60;55.50;;;;;;5022863;28;20057;-55
2023/10/31 09:43:20;;;;;;;8.20;4.88;;;15.60;55.50;;;;;;5023467;28;20053;-51
2023/10/31 09:45:48;;;;;;;10.35;5.20;;;15.60;55.50;;;;;;5021960;28;20049;-50
2023/10/31 09:48:15;;;;;;;21.85;6.20;;;15.60;55.40;;;;;;5022591;28;20054;-52
2023/10/31 09:50:44;;;;;;;10.57;5.32;;;15.60;55.50;;;;;;5021700;28;20057;-55
2023/10/31 09:53:12;;;;;;;22.23;13.13;;;15.70;55.60;;;;;;5022705;28;20057;-50
2023/10/31 09:55:40;;;;;;;15.23;8.30;;;15.70;55.60;;;;;;5023608;28;20497;-55
2023/10/31 09:58:07;;;;;;;11.73;6.28;;;15.70;56.00;;;;;;5023055;28;20068;-50
2023/10/31 10:00:36;;;;;;;11.70;5.65;;;15.70;55.40;;;;;;5021995;28;20417;-54
2023/10/31 10:03:04;;;;;;;4.15;2.30;;;15.70;55.40;;;;;;5022575;28;20045;-58
2023/10/31 10:05:32;;;;;;;2.08;1.23;;;15.70;55.40;;;;;;5021728;28;20057;-58
2023/10/31 10:08:01;;;;;;;3.90;1.83;;;15.70;55.20;;;;;;5021540;28;20049;-56
2023/10/31 10:10:29;;;;;;;3.58;1.77;;;15.70;55.10;;;;;;5023001;28;20068;-57
2023/10/31 10:12:58;;;;;;;10.35;5.53;;;15.80;55.30;;;;;;5022697;28;20065;-49
2023/10/31 10:15:25;;;;;;;5.20;1.77;;;15.80;55.40;;;;;;5021814;28;20493;-55
2023/10/31 10:17:52;;;;;;;4.03;1.17;;;15.80;55.30;;;;;;5021523;28;20896;-53
2023/10/31 10:20:20;;;;;;;2.60;1.90;;;15.80;55.10;;;;;;5021421;28;20418;-52
2023/10/31 10:22:48;;;;;;;2.92;1.48;;;15.90;55.10;;;;;;5022277;28;20049;-58
2023/10/31 10:25:19;;;;;;;3.97;0.85;;;15.90;55.10;;;;;;5022203;28;20050;-55
2023/10/31 10:27:47;;;;;;;2.28;0.95;;;16.00;55.10;;;;;;5021662;28;20060;-55
2023/10/31 10:30:15;;;;;;;2.60;1.25;;;16.00;54.80;;;;;;5021527;28;20068;-53
2023/10/31 10:32:42;;;;;;;13.52;2.70;;;16.10;54.80;;;;;;5020767;28;20057;-52
2023/10/31 10:35:10;;;;;;;1.83;0.90;;;16.10;54.70;;;;;;5021465;28;20060;-52
2023/10/31 10:37:39;;;;;;;2.08;0.70;;;16.20;55.30;;;;;;5022478;28;20053;-55
2023/10/31 10:40:08;;;;;;;1.85;1.20;;;16.20;54.80;;;;;;5021835;28;20057;-53
2023/10/31 10:42:45;;;;;;;1.95;1.00;;;16.30;54.70;;;;;;5021694;28;20045;-47
2023/10/31 10:45:15;;;;;;;1.98;0.85;;;16.30;54.20;;;;;;5021379;28;20064;-55
2023/10/31 10:47:47;;;;;;;1.90;0.80;;;16.40;54.20;;;;;;5020712;28;20529;-50
2023/10/31 10:50:15;;;;;;;1.48;0.70;;;16.50;53.80;;;;;;5021729;28;20486;-56
2023/10/31 10:52:50;;;;;;;1.95;1.00;;;16.50;53.90;;;;;;5022805;28;20057;-56
2023/10/31 10:55:25;;;;;;;1.48;0.60;;;16.50;53.80;;;;;;5022186;28;20061;-56
2023/10/31 10:58:05;;;;;;;1.70;0.60;;;16.60;53.70;;;;;;5021573;28;20057;-56
2023/10/31 11:00:32;;;;;;;3.25;0.70;;;16.60;53.70;;;;;;5020829;28;20099;-48
2023/10/31 11:03:01;;;;;;;3.15;0.80;;;16.70;53.50;;;;;;5020524;28;20052;-55
2023/10/31 11:05:29;;;;;;;2.08;0.57;;;16.70;52.90;;;;;;5020464;28;20061;-56
2023/10/31 11:07:58;;;;;;;0.70;0.40;;;16.70;52.40;;;;;;5021853;28;20057;-56
2023/10/31 11:10:28;;;;;;;1.77;0.50;;;16.70;52.30;;;;;;5020040;28;20402;-56
2023/10/31 11:12:56;;;;;;;1.55;0.93;;;16.80;52.30;;;;;;5021291;28;20056;-51
2023/10/31 11:15:24;;;;;;;2.78;0.70;;;16.80;52.40;;;;;;5020965;28;20054;-50
2023/10/31 11:17:53;;;;;;;3.05;0.68;;;16.80;52.20;;;;;;5020796;28;20053;-54
2023/10/31 11:20:21;;;;;;;1.48;0.52;;;16.90;52.30;;;;;;5020691;28;20077;-53
2023/10/31 11:22:51;;;;;;;1.77;0.40;;;16.90;52.40;;;;;;5022437;28;20061;-52
2023/10/31 11:25:20;;;;;;;2.85;0.80;;;16.90;52.10;;;;;;5021522;28;20103;-51
2023/10/31 11:27:47;;;;;;;1.40;0.47;;;16.90;52.10;;;;;;5021061;28;20053;-51
2023/10/31 11:30:27;;;;;;;1.00;0.45;;;16.90;52.00;;;;;;5021076;28;20045;-43
2023/10/31 11:32:55;;;;;;;0.80;0.40;;;16.90;51.50;;;;;;5020195;28;20049;-49
2023/10/31 11:35:23;;;;;;;3.08;1.27;;;17.00;51.60;;;;;;5019992;28;20299;-53
2023/10/31 11:38:01;;;;;;;1.83;1.00;;;17.00;51.60;;;;;;5022171;28;20077;-53
2023/10/31 11:40:28;;;;;;;1.90;0.75;;;17.00;51.90;;;;;;5022211;28;20526;-47
2023/10/31 11:42:59;;;;;;;1.60;0.50;;;17.00;51.60;;;;;;5023171;28;20057;-56
2023/10/31 11:45:30;;;;;;;7.05;2.58;;;17.00;51.80;;;;;;5023493;28;20057;-53
2023/10/31 11:47:58;;;;;;;1.05;0.43;;;17.00;51.90;;;;;;5023715;28;20049;-51
2023/10/31 11:50:25;;;;;;;2.22;0.60;;;17.00;51.70;;;;;;5023953;28;20053;-53
2023/10/31 11:53:06;;;;;;;4.00;0.88;;;17.00;51.50;;;;;;5025833;28;20513;-49
2023/10/31 11:55:40;;;;;;;3.47;0.80;;;17.10;51.90;;;;;;5025382;28;20057;-50
2023/10/31 11:58:15;;;;;;;0.87;0.50;;;17.10;51.70;;;;;;5024543;28;20053;-44
2023/10/31 12:00:44;;;;;;;2.42;0.60;;;17.10;51.30;;;;;;5023997;28;20859;-55
2023/10/31 12:03:11;;;;;;;2.67;0.80;;;17.10;51.70;;;;;;5025000;28;20053;-50
2023/10/31 12:05:39;;;;;;;11.57;0.98;;;17.20;51.60;;;;;;5023730;28;20050;-54
2023/10/31 12:08:06;;;;;;;6.13;1.15;;;17.20;51.50;;;;;;5025379;28;20057;-56
2023/10/31 12:10:33;;;;;;;3.78;0.60;;;17.20;51.70;;;;;;5024466;28;20513;-54
2023/10/31 12:13:01;;;;;;;1.77;0.50;;;17.20;51.70;;;;;;5024355;28;20060;-56
2023/10/31 12:15:28;;;;;;;4.57;0.70;;;17.20;52.00;;;;;;5023076;28;20616;-54
2023/10/31 12:18:00;;;;;;;2.38;0.70;;;17.30;52.30;;;;;;5025290;28;20053;-56
2023/10/31 12:20:27;;;;;;;3.90;0.70;;;17.30;52.40;;;;;;5023962;28;20397;-52
2023/10/31 12:23:04;;;;;;;3.33;0.77;;;17.40;52.40;;;;;;5025199;28;20092;-52
2023/10/31 12:25:35;;;;;;;2.47;0.75;;;17.40;52.30;;;;;;5024269;28;20053;-53
2023/10/31 12:28:02;;;;;;;3.88;1.00;;;17.40;52.20;;;;;;5023993;28;20058;-53
2023/10/31 12:30:30;;;;;;;2.53;0.60;;;17.40;51.60;;;;;;5023516;28;20116;-52
2023/10/31 12:32:58;;;;;;;4.05;0.70;;;17.40;51.40;;;;;;5023861;28;20532;-51
2023/10/31 12:35:27;;;;;;;3.08;0.80;;;17.40;51.40;;;;;;5023957;28;20057;-47
2023/10/31 12:37:55;;;;;;;5.20;0.80;;;17.40;51.30;;;;;;5024641;28;20054;-49
2023/10/31 12:40:23;;;;;;;1.85;0.80;;;17.40;51.50;;;;;;5023565;28;20414;-44
2023/10/31 12:42:51;;;;;;;9.65;1.15;;;17.40;51.50;;;;;;5023199;28;20057;-51
2023/10/31 12:45:19;;;;;;;3.42;0.70;;;17.50;51.40;;;;;;5023295;28;20053;-50
2023/10/31 12:48:01;;;;;;;3.38;0.95;;;17.40;51.40;;;;;;5023079;28;20053;-47
2023/10/31 12:50:30;;;;;;;5.82;0.98;;;17.40;50.70;;;;;;5021703;28;20057;-44